Time;durP1;ratioP1;P1;durP2;ratioP2;P2;SDS_P1;SDS_P2;PMS_P1;PMS_P2;Temp;Humidity;BMP_temperature;BMP_pressure;BME280_temperature;BME280_humidity;BME280_pressure;Samples;Min_cycle;Max_cycle;Signal;HPM_P1;HPM_P2
2023/02/01 00:01:59;;;;;;;;;;;;;;;4.64;81.48;100636.13;4120857;28;20020;-60
2023/02/01 00:04:01;;;;;;;;;;;;;;;4.64;81.48;100633.47;4121185;28;20436;-58
2023/02/01 00:06:03;;;;;;;;;;;;;;;4.62;81.35;100638.09;4120131;28;20436;-59
2023/02/01 00:08:05;;;;;;;;;;;;;;;4.64;81.65;100636.13;4121539;28;20008;-62
2023/02/01 00:10:08;;;;;;;;;;;;;;;4.63;81.38;100630.94;4121898;28;20025;-61
2023/02/01 00:12:12;;;;;;;;;;;;;;;4.59;81.53;100633.03;4121006;28;20041;-63
2023/02/01 00:14:14;;;;;;;;;;;;;;;4.59;81.15;100627.69;4123142;28;20021;-61
2023/02/01 00:16:17;;;;;;;;;;;;;;;4.59;81.38;100643.75;4121133;28;20495;-62
2023/02/01 00:18:18;;;;;;;;;;;;;;;4.63;81.65;100634.44;4122297;28;20083;-61
2023/02/01 00:20:21;;;;;;;;;;;;;;;4.60;81.19;100625.84;4123084;28;20025;-63
2023/02/01 00:22:23;;;;;;;;;;;;;;;4.61;81.40;100641.75;4122066;28;19926;-62
2023/02/01 00:24:25;;;;;;;;;;;;;;;4.60;81.27;100634.72;4121358;28;20029;-63
2023/02/01 00:26:28;;;;;;;;;;;;;;;4.61;81.44;100625.72;4121742;28;20025;-63
2023/02/01 00:28:32;;;;;;;;;;;;;;;4.66;81.15;100630.66;4121866;28;20008;-63
2023/02/01 00:30:34;;;;;;;;;;;;;;;4.72;81.58;100634.56;4121211;28;20012;-62
2023/02/01 00:32:38;;;;;;;;;;;;;;;4.72;81.06;100642.59;4122607;28;20016;-62
2023/02/01 00:34:40;;;;;;;;;;;;;;;4.74;80.98;100652.19;4122066;28;20036;-61
2023/02/01 00:36:42;;;;;;;;;;;;;;;4.71;81.32;100639.09;4121639;28;20009;-61
2023/02/01 00:38:45;;;;;;;;;;;;;;;4.69;80.81;100647.25;4122293;28;20133;-61
2023/02/01 00:40:47;;;;;;;;;;;;;;;4.70;80.92;100640.06;4120842;28;20024;-62
2023/02/01 00:42:49;;;;;;;;;;;;;;;4.67;81.18;100643.88;4120668;28;20435;-61
2023/02/01 00:44:52;;;;;;;;;;;;;;;4.71;80.84;100630.22;4136457;28;20563;-62
2023/02/01 00:46:55;;;;;;;;;;;;;;;4.67;81.08;100633.19;4122185;28;20016;-61
2023/02/01 00:48:57;;;;;;;;;;;;;;;4.65;80.83;100637.81;4120004;28;20013;-63
2023/02/01 00:51:00;;;;;;;;;;;;;;;4.68;80.57;100645.53;4121723;28;20021;-62
2023/02/01 00:53:01;;;;;;;;;;;;;;;4.67;80.79;100635.00;4121550;28;20016;-61
2023/02/01 00:55:04;;;;;;;;;;;;;;;4.71;80.77;100654.28;4121866;28;20024;-61
2023/02/01 00:57:06;;;;;;;;;;;;;;;4.68;80.59;100652.75;4136200;28;20020;-62
2023/02/01 00:59:08;;;;;;;;;;;;;;;4.70;80.71;100648.09;4136795;28;20418;-63
2023/02/01 01:01:13;;;;;;;;;;;;;;;4.66;80.42;100657.41;4127887;28;20022;-61
2023/02/01 01:03:21;;;;;;;;;;;;;;;4.63;80.58;100652.31;4129235;28;20455;-60
2023/02/01 01:05:23;;;;;;;;;;;;;;;4.60;80.53;100664.13;4121948;28;20012;-60
2023/02/01 01:07:25;;;;;;;;;;;;;;;4.64;80.61;100656.66;4121355;28;20005;-62
2023/02/01 01:09:27;;;;;;;;;;;;;;;4.66;80.98;100665.41;4128973;28;20021;-63
2023/02/01 01:11:30;;;;;;;;;;;;;;;4.65;80.93;100664.56;4120392;28;20013;-61
2023/02/01 01:13:32;;;;;;;;;;;;;;;4.66;80.75;100658.22;4121939;28;20020;-63
2023/02/01 01:15:36;;;;;;;;;;;;;;;4.61;80.44;100657.81;4122465;28;20373;-62
2023/02/01 01:17:39;;;;;;;;;;;;;;;4.62;80.74;100659.47;4121145;28;20024;-63
2023/02/01 01:19:41;;;;;;;;;;;;;;;4.62;80.91;100659.47;4120864;28;20008;-63
2023/02/01 01:21:43;;;;;;;;;;;;;;;4.66;80.63;100654.72;4121216;28;20017;-63
2023/02/01 01:23:46;;;;;;;;;;;;;;;4.60;80.25;100634.72;4121544;28;19925;-63
2023/02/01 01:25:47;;;;;;;;;;;;;;;4.61;80.14;100638.25;4139775;28;20379;-64
2023/02/01 01:27:50;;;;;;;;;;;;;;;4.60;79.90;100639.22;4124184;28;20008;-63
2023/02/01 01:29:52;;;;;;;;;;;;;;;4.58;80.55;100633.19;4122357;28;20020;-63
2023/02/01 01:31:56;;;;;;;;;;;;;;;4.59;80.57;100633.03;4122296;28;19945;-63
2023/02/01 01:34:00;;;;;;;;;;;;;;;4.58;80.46;100634.03;4124733;28;20040;-63
2023/02/01 01:36:02;;;;;;;;;;;;;;;4.59;80.43;100643.75;4123595;28;20435;-62
2023/02/01 01:38:04;;;;;;;;;;;;;;;4.67;80.35;100626.97;4122821;28;20056;-62
2023/02/01 01:40:07;;;;;;;;;;;;;;;4.67;80.27;100622.47;4123488;28;20013;-61
2023/02/01 01:42:10;;;;;;;;;;;;;;;4.64;80.26;100614.72;4123324;28;20017;-63
2023/02/01 01:44:27;;;;;;;;;;;;;;;4.66;80.48;100620.78;4115579;28;19929;-61
2023/02/01 01:46:29;;;;;;;;;;;;;;;4.64;80.23;100612.06;4122626;28;20423;-63
2023/02/01 01:48:31;;;;;;;;;;;;;;;4.60;80.13;100621.34;4124303;28;20028;-60
2023/02/01 01:50:36;;;;;;;;;;;;;;;4.59;80.22;100616.13;4123527;28;20017;-63
2023/02/01 01:52:38;;;;;;;;;;;;;;;4.58;80.46;100599.25;4124544;28;20017;-62
2023/02/01 01:54:41;;;;;;;;;;;;;;;4.59;80.32;100608.97;4123929;28;20535;-61
2023/02/01 01:56:43;;;;;;;;;;;;;;;4.59;80.13;100594.72;4124650;28;20020;-61
2023/02/01 01:58:45;;;;;;;;;;;;;;;4.63;80.36;100610.34;4123788;28;20371;-61
2023/02/01 02:00:47;;;;;;;;;;;;;;;4.61;79.47;100598.97;4138544;28;20020;-62
2023/02/01 02:02:53;;;;;;;;;;;;;;;4.63;79.73;100609.53;4123897;28;20017;-61
2023/02/01 02:04:55;;;;;;;;;;;;;;;4.62;79.84;100614.00;4124131;28;19929;-63
2023/02/01 02:07:00;;;;;;;;;;;;;;;4.61;79.85;100592.78;4124388;28;20021;-63
2023/02/01 02:09:02;;;;;;;;;;;;;;;4.63;79.56;100610.34;4124719;28;20032;-62
2023/02/01 02:11:04;;;;;;;;;;;;;;;4.66;79.76;100620.78;4120650;28;20025;-63
2023/02/01 02:13:06;;;;;;;;;;;;;;;4.63;79.66;100612.19;4123542;28;20016;-63
2023/02/01 02:15:09;;;;;;;;;;;;;;;4.65;79.97;100608.38;4123021;28;20452;-62
2023/02/01 02:17:24;;;;;;;;;;;;;;;4.73;79.27;100601.47;4123747;28;20012;-63
2023/02/01 02:19:44;;;;;;;;;;;;;;;4.71;79.24;100603.47;4123753;28;20020;-63
2023/02/01 02:21:54;;;;;;;;;;;;;;;4.71;79.41;100600.78;4124246;28;20028;-61
2023/02/01 02:24:07;;;;;;;;;;;;;;;4.69;79.47;100609.78;4123978;28;20355;-63
2023/02/01 02:26:26;;;;;;;;;;;;;;;4.72;79.44;100597.97;4130979;28;20392;-62
2023/02/01 02:28:33;;;;;;;;;;;;;;;4.68;78.56;100588.53;4123612;28;20005;-61
2023/02/01 02:30:38;;;;;;;;;;;;;;;4.65;79.13;100597.69;4121766;28;20357;-62
2023/02/01 02:33:04;;;;;;;;;;;;;;;4.66;79.29;100595.88;4124617;28;20021;-62
2023/02/01 02:35:08;;;;;;;;;;;;;;;4.64;79.82;100600.50;4124013;28;20385;-63
2023/02/01 02:37:12;;;;;;;;;;;;;;;4.66;79.69;100588.66;4124379;28;20028;-63
2023/02/01 02:39:17;;;;;;;;;;;;;;;4.69;79.35;100582.22;4139161;28;20012;-64
2023/02/01 02:48:31;;;;;;;;;;;;;;;4.62;79.60;100586.41;4121801;28;20012;-62
2023/02/01 02:55:17;;;;;;;;;;;;;;;4.64;79.28;100579.97;4107605;28;19969;-65
2023/02/01 03:04:19;;;;;;;;;;;;;;;4.61;79.00;100587.44;4123706;28;20028;-63
2023/02/01 03:06:26;;;;;;;;;;;;;;;4.61;79.68;100587.44;4122285;28;20076;-62
2023/02/01 03:08:28;;;;;;;;;;;;;;;4.63;79.57;100582.78;4123525;28;20447;-62
2023/02/01 03:10:36;;;;;;;;;;;;;;;4.65;79.53;100583.47;4113432;28;20009;-60
2023/02/01 03:12:56;;;;;;;;;;;;;;;4.65;79.64;100576.28;4130319;28;20028;-62
2023/02/01 03:15:02;;;;;;;;;;;;;;;4.63;79.62;100575.59;4122398;28;20488;-63
2023/02/01 03:17:04;;;;;;;;;;;;;;;4.64;78.98;100576.41;4122472;28;20029;-61
2023/02/01 03:19:07;;;;;;;;;;;;;;;4.61;79.29;100564.19;4121677;28;20139;-62
2023/02/01 03:21:13;;;;;;;;;;;;;;;4.60;79.27;100565.16;4121681;28;20436;-63
2023/02/01 03:23:17;;;;;;;;;;;;;;;4.64;79.16;100565.72;4123231;28;20025;-62
2023/02/01 03:25:20;;;;;;;;;;;;;;;4.63;79.14;100554.19;4122338;28;20009;-63
2023/02/01 03:27:23;;;;;;;;;;;;;;;4.64;78.95;100566.59;4138996;28;20016;-62
2023/02/01 03:29:28;;;;;;;;;;;;;;;4.63;78.77;100559.53;4121179;28;19925;-63
2023/02/01 03:31:30;;;;;;;;;;;;;;;4.65;78.70;100559.38;4122632;28;20001;-62
2023/02/01 03:33:33;;;;;;;;;;;;;;;4.65;79.03;100546.00;4122936;28;20025;-63
2023/02/01 03:35:37;;;;;;;;;;;;;;;4.69;78.99;100542.06;4122063;28;20012;-61
2023/02/01 03:37:39;;;;;;;;;;;;;;;4.67;79.11;100533.31;4122225;28;20016;-63
2023/02/01 03:39:44;;;;;;;;;;;;;;;4.68;79.06;100540.38;4122368;28;20024;-62
2023/02/01 03:41:47;;;;;;;;;;;;;;;4.65;78.99;100541.50;4129436;28;20016;-63
2023/02/01 03:43:52;;;;;;;;;;;;;;;4.68;79.13;100543.88;4129411;28;20013;-62
2023/02/01 03:45:57;;;;;;;;;;;;;;;4.67;78.91;100546.72;4129951;28;19964;-63
2023/02/01 03:48:00;;;;;;;;;;;;;;;4.65;78.95;100541.50;4128904;28;20025;-60
2023/02/01 03:50:02;;;;;;;;;;;;;;;4.63;79.26;100543.47;4129598;28;19925;-63
2023/02/01 03:52:05;;;;;;;;;;;;;;;4.63;79.10;100532.78;4122554;28;20008;-62
2023/02/01 03:54:07;;;;;;;;;;;;;;;4.65;79.21;100532.63;4123026;28;20005;-63
2023/02/01 03:56:11;;;;;;;;;;;;;;;4.66;79.07;100542.38;4121491;28;20025;-62
2023/02/01 03:58:14;;;;;;;;;;;;;;;4.65;78.77;100533.47;4106067;28;20013;-62
2023/02/01 04:00:17;;;;;;;;;;;;;;;4.66;78.98;100539.69;4130142;28;20459;-62
2023/02/01 04:02:20;;;;;;;;;;;;;;;4.64;78.63;100542.50;4129594;28;20359;-61
2023/02/01 04:04:22;;;;;;;;;;;;;;;4.66;78.93;100532.50;4137867;28;20016;-62
2023/02/01 04:06:28;;;;;;;;;;;;;;;4.65;78.99;100533.47;4121720;28;20005;-61
2023/02/01 04:08:35;;;;;;;;;;;;;;;4.65;78.23;100536.16;4122066;28;20666;-62
2023/02/01 04:10:37;;;;;;;;;;;;;;;4.63;78.40;100530.09;4120443;28;19976;-63
2023/02/01 04:12:40;;;;;;;;;;;;;;;4.63;78.73;100526.59;4122099;28;20013;-61
2023/02/01 04:14:42;;;;;;;;;;;;;;;4.64;78.84;100529.13;4122292;28;20024;-61
2023/02/01 04:16:44;;;;;;;;;;;;;;;4.66;79.08;100532.50;4122136;28;20008;-63
2023/02/01 04:18:46;;;;;;;;;;;;;;;4.66;78.88;100542.38;4122277;28;20040;-62
2023/02/01 04:20:48;;;;;;;;;;;;;;;4.66;78.67;100535.16;4122145;28;20020;-60
2023/02/01 04:22:50;;;;;;;;;;;;;;;4.65;78.80;100530.78;4122268;28;20024;-63
2023/02/01 04:24:52;;;;;;;;;;;;;;;4.62;78.52;100531.09;4121820;28;20420;-62
2023/02/01 04:26:54;;;;;;;;;;;;;;;4.64;78.93;100520.25;4122096;28;20017;-61
2023/02/01 04:28:57;;;;;;;;;;;;;;;4.65;78.83;100533.47;4122436;28;20046;-59
2023/02/01 04:30:59;;;;;;;;;;;;;;;4.66;78.61;100535.16;4121852;28;20022;-62
2023/02/01 04:33:03;;;;;;;;;;;;;;;4.67;78.84;100536.88;4122383;28;20016;-61
2023/02/01 04:35:05;;;;;;;;;;;;;;;4.68;78.74;100537.69;4122220;28;20021;-60
2023/02/01 04:37:07;;;;;;;;;;;;;;;4.71;78.81;100532.06;4122435;28;20008;-63
2023/02/01 04:39:09;;;;;;;;;;;;;;;4.68;78.42;100535.03;4122253;28;20366;-63
2023/02/01 04:41:11;;;;;;;;;;;;;;;4.69;78.24;100531.38;4121540;28;20554;-62
2023/02/01 04:43:13;;;;;;;;;;;;;;;4.70;78.48;100527.69;4122197;28;20021;-63
2023/02/01 04:45:16;;;;;;;;;;;;;;;4.72;78.39;100535.56;4122762;28;20027;-62
2023/02/01 04:47:18;;;;;;;;;;;;;;;4.72;78.77;100528.41;4122319;28;20016;-63
2023/02/01 04:49:21;;;;;;;;;;;;;;;4.72;78.44;100538.25;4122670;28;20005;-61
2023/02/01 04:51:25;;;;;;;;;;;;;;;4.72;77.98;100535.56;4121730;28;19928;-62
2023/02/01 04:53:28;;;;;;;;;;;;;;;4.71;77.69;100524.03;4121444;28;20024;-63
2023/02/01 04:55:30;;;;;;;;;;;;;;;4.70;78.06;100525.00;4122307;28;20573;-63
2023/02/01 04:57:32;;;;;;;;;;;;;;;4.69;78.30;100509.97;4122128;28;20364;-63
2023/02/01 04:59:34;;;;;;;;;;;;;;;4.68;78.38;100525.16;4121720;28;20025;-63
2023/02/01 05:01:38;;;;;;;;;;;;;;;4.72;78.46;100516.84;4121959;28;20016;-63
2023/02/01 05:03:40;;;;;;;;;;;;;;;4.73;78.47;100514.03;4121808;28;20008;-61
2023/02/01 05:05:42;;;;;;;;;;;;;;;4.73;78.73;100510.53;4120776;28;20017;-62
2023/02/01 05:07:44;;;;;;;;;;;;;;;4.72;78.48;100509.69;4121581;28;20005;-62
2023/02/01 05:09:46;;;;;;;;;;;;;;;4.73;78.66;100514.03;4123346;28;20029;-61
2023/02/01 05:14:07;;;;;;;;;;;;;;;4.77;78.10;100496.72;4122277;28;20020;-62
2023/02/01 05:16:09;;;;;;;;;;;;;;;4.77;78.17;100506.56;4121962;28;20463;-62
2023/02/01 05:18:12;;;;;;;;;;;;;;;4.76;77.94;100502.19;4121494;28;20001;-63
2023/02/01 05:20:14;;;;;;;;;;;;;;;4.76;78.01;100496.84;4121131;28;20017;-63
2023/02/01 05:22:16;;;;;;;;;;;;;;;4.74;77.84;100494.31;4122333;28;20024;-62
2023/02/01 05:24:20;;;;;;;;;;;;;;;4.75;78.27;100489.81;4121399;28;20028;-61
2023/02/01 05:26:22;;;;;;;;;;;;;;;4.73;77.80;100502.50;4121596;28;20020;-62
2023/02/01 05:28:24;;;;;;;;;;;;;;;4.72;78.44;100492.75;4121261;28;20005;-63
2023/02/01 05:30:26;;;;;;;;;;;;;;;4.77;78.42;100493.19;4120765;28;20024;-61
2023/02/01 05:32:28;;;;;;;;;;;;;;;4.78;78.26;100490.38;4121737;28;19980;-61
2023/02/01 05:34:31;;;;;;;;;;;;;;;4.78;77.96;100485.03;4121892;28;20363;-62
2023/02/01 05:36:34;;;;;;;;;;;;;;;4.76;77.96;100492.34;4121123;28;20048;-62
2023/02/01 05:38:36;;;;;;;;;;;;;;;4.76;78.14;100492.34;4121240;28;20029;-62
2023/02/01 05:40:38;;;;;;;;;;;;;;;4.76;77.87;100483.47;4120325;28;20016;-63
2023/02/01 05:42:40;;;;;;;;;;;;;;;4.78;77.75;100486.84;4121738;28;20375;-63
2023/02/01 05:44:42;;;;;;;;;;;;;;;4.79;77.92;100484.00;4121147;28;20005;-63
2023/02/01 05:46:44;;;;;;;;;;;;;;;4.81;77.96;100483.88;4120814;28;20491;-63
2023/02/01 05:48:46;;;;;;;;;;;;;;;4.77;77.48;100488.69;4121757;28;20025;-64
2023/02/01 05:50:49;;;;;;;;;;;;;;;4.75;77.60;100485.31;4121060;28;20020;-59
2023/02/01 05:52:51;;;;;;;;;;;;;;;4.77;78.15;100482.50;4121376;28;19921;-62
2023/02/01 05:54:53;;;;;;;;;;;;;;;4.79;78.05;100492.03;4120511;28;20233;-61
2023/02/01 05:56:55;;;;;;;;;;;;;;;4.79;77.64;100483.19;4121720;28;20017;-61
2023/02/01 05:58:57;;;;;;;;;;;;;;;4.79;77.75;100486.69;4121096;28;20021;-62
2023/02/01 06:01:00;;;;;;;;;;;;;;;4.79;77.68;100500.06;4119933;28;20054;-63
2023/02/01 06:03:01;;;;;;;;;;;;;;;4.81;77.53;100470.50;4121400;28;20029;-63
2023/02/01 06:05:04;;;;;;;;;;;;;;;4.80;77.62;100479.53;4121740;28;20017;-62
2023/02/01 06:07:08;;;;;;;;;;;;;;;4.78;77.50;100462.75;4120777;28;20025;-63
2023/02/01 06:09:10;;;;;;;;;;;;;;;4.80;77.64;100483.03;4121300;28;20017;-63
2023/02/01 06:11:13;;;;;;;;;;;;;;;4.82;77.49;100469.50;4123200;28;20068;-62
2023/02/01 06:13:15;;;;;;;;;;;;;;;4.82;77.67;100453.47;4123942;28;20455;-61
2023/02/01 06:15:18;;;;;;;;;;;;;;;4.82;77.61;100470.34;4123814;28;20020;-62
2023/02/01 06:17:20;;;;;;;;;;;;;;;4.83;77.61;100461.34;4124368;28;20017;-60
2023/02/01 06:19:22;;;;;;;;;;;;;;;4.83;77.50;100466.69;4122780;28;21462;-61
2023/02/01 06:21:24;;;;;;;;;;;;;;;4.86;77.40;100458.38;4123846;28;20025;-63
2023/02/01 06:23:29;;;;;;;;;;;;;;;4.86;77.45;100462.88;4123596;28;20012;-63
2023/02/01 06:25:31;;;;;;;;;;;;;;;4.87;77.81;100451.19;4123348;28;20531;-63
2023/02/01 06:27:34;;;;;;;;;;;;;;;4.87;77.59;100459.19;4123398;28;20008;-61
2023/02/01 06:29:36;;;;;;;;;;;;;;;4.85;77.65;100453.16;4122788;28;20012;-62
2023/02/01 06:31:38;;;;;;;;;;;;;;;4.84;77.44;100449.66;4124446;28;20483;-61
2023/02/01 06:33:40;;;;;;;;;;;;;;;4.83;77.38;100461.34;4123833;28;20431;-64
2023/02/01 06:35:44;;;;;;;;;;;;;;;4.83;77.79;100447.97;4123016;28;20016;-62
2023/02/01 06:37:45;;;;;;;;;;;;;;;4.83;77.44;100455.16;4123496;28;20009;-61
2023/02/01 06:39:49;;;;;;;;;;;;;;;4.80;77.81;100452.78;4122197;28;20021;-62
2023/02/01 06:41:51;;;;;;;;;;;;;;;4.82;77.73;100458.81;4122375;28;20021;-63
2023/02/01 06:43:53;;;;;;;;;;;;;;;4.80;77.83;100453.59;4123088;28;20442;-63
2023/02/01 06:45:59;;;;;;;;;;;;;;;4.81;77.79;100446.41;4122758;28;20020;-61
2023/02/01 06:48:01;;;;;;;;;;;;;;;4.81;77.94;100433.91;4123054;28;20025;-61
2023/02/01 06:50:03;;;;;;;;;;;;;;;4.80;77.63;100448.25;4123418;28;20021;-61
2023/02/01 06:52:05;;;;;;;;;;;;;;;4.80;77.63;100453.59;4122478;28;20448;-62
2023/02/01 06:54:07;;;;;;;;;;;;;;;4.84;77.95;100456.81;4123222;28;20059;-63
2023/02/01 06:56:11;;;;;;;;;;;;;;;4.87;77.67;100444.00;4123115;28;20036;-61
2023/02/01 06:58:13;;;;;;;;;;;;;;;4.86;77.73;100433.47;4123606;28;20026;-63
2023/02/01 07:00:15;;;;;;;;;;;;;;;4.83;77.74;100434.59;4120350;28;20016;-63
2023/02/01 07:02:17;;;;;;;;;;;;;;;4.84;77.55;100427.38;4122777;28;20018;-62
2023/02/01 07:04:19;;;;;;;;;;;;;;;4.83;77.70;100441.78;4122246;28;20037;-60
2023/02/01 07:06:23;;;;;;;;;;;;;;;4.83;77.60;100456.00;4121752;28;20009;-62
2023/02/01 07:08:25;;;;;;;;;;;;;;;4.83;77.36;100421.19;4121236;28;20384;-62
2023/02/01 07:10:27;;;;;;;;;;;;;;;4.83;77.33;100398.97;4122339;28;20029;-63
2023/02/01 07:12:31;;;;;;;;;;;;;;;4.82;77.37;100424.84;4122902;28;20008;-61
2023/02/01 07:14:33;;;;;;;;;;;;;;;4.81;77.39;100412.50;4122945;28;20016;-59
2023/02/01 07:16:34;;;;;;;;;;;;;;;4.82;77.36;100410.66;4121675;28;20052;-59
2023/02/01 07:18:36;;;;;;;;;;;;;;;4.82;77.57;100418.66;4122813;28;20373;-61
2023/02/01 07:20:38;;;;;;;;;;;;;;;4.82;76.60;100424.03;4123229;28;20017;-58
2023/02/01 07:22:41;;;;;;;;;;;;;;;4.83;76.69;100415.03;4122887;28;20011;-62
2023/02/01 07:24:42;;;;;;;;;;;;;;;4.80;76.59;100415.31;4124049;28;20021;-63
2023/02/01 07:26:44;;;;;;;;;;;;;;;4.79;76.99;100422.47;4123087;28;20013;-63
2023/02/01 07:28:48;;;;;;;;;;;;;;;4.83;77.11;100417.69;4123423;28;20356;-63
2023/02/01 07:30:51;;;;;;;;;;;;;;;4.83;77.04;100404.31;4123143;28;20013;-63
2023/02/01 07:32:53;;;;;;;;;;;;;;;4.82;77.12;100418.66;4123374;28;20005;-62
2023/02/01 07:34:55;;;;;;;;;;;;;;;4.80;77.22;100394.75;4121696;28;19961;-63
2023/02/01 07:36:57;;;;;;;;;;;;;;;4.79;77.19;100398.41;4122113;28;20013;-63
2023/02/01 07:38:59;;;;;;;;;;;;;;;4.76;77.27;100392.50;4123055;28;20025;-63
2023/02/01 07:41:01;;;;;;;;;;;;;;;4.78;77.56;100379.81;4121723;28;20483;-63
2023/02/01 07:43:05;;;;;;;;;;;;;;;4.76;77.92;100377.28;4123080;28;20016;-63
2023/02/01 07:45:09;;;;;;;;;;;;;;;4.76;77.74;100388.00;4122785;28;20386;-63
2023/02/01 07:47:11;;;;;;;;;;;;;;;4.78;77.84;100378.00;4123005;28;20021;-63
2023/02/01 07:49:13;;;;;;;;;;;;;;;4.77;77.73;100368.28;4123074;28;20025;-62
2023/02/01 07:51:16;;;;;;;;;;;;;;;4.79;77.91;100387.69;4122473;28;20025;-62
2023/02/01 07:53:18;;;;;;;;;;;;;;;4.82;77.45;100383.88;4117941;28;20088;-62
2023/02/01 07:55:20;;;;;;;;;;;;;;;4.82;77.90;100386.56;4120539;28;20004;-62
2023/02/01 07:57:22;;;;;;;;;;;;;;;4.81;77.87;100383.06;4122175;28;20009;-63
2023/02/01 07:59:24;;;;;;;;;;;;;;;4.83;78.08;100393.63;4121446;28;20012;-63
2023/02/01 08:01:27;;;;;;;;;;;;;;;4.83;78.03;100389.09;4120338;28;20028;-61
2023/02/01 08:03:29;;;;;;;;;;;;;;;4.83;78.02;100380.22;4120127;28;20471;-62
2023/02/01 08:05:31;;;;;;;;;;;;;;;4.79;78.08;100378.84;4120648;28;20026;-62
2023/02/01 08:07:33;;;;;;;;;;;;;;;4.78;78.26;100359.28;4121457;28;20030;-61
2023/02/01 08:09:35;;;;;;;;;;;;;;;4.80;78.43;100375.19;4120713;28;20805;-63
2023/02/01 08:11:38;;;;;;;;;;;;;;;4.81;78.31;100372.34;4119848;28;20025;-62
2023/02/01 08:13:40;;;;;;;;;;;;;;;4.78;78.36;100377.13;4120871;28;20020;-62
2023/02/01 08:15:42;;;;;;;;;;;;;;;4.75;78.56;100367.59;4121462;28;20396;-61
2023/02/01 08:17:48;;;;;;;;;;;;;;;4.74;78.74;100368.56;4121929;28;20013;-61
2023/02/01 08:19:50;;;;;;;;;;;;;;;4.70;78.85;100369.84;4120214;28;20060;-63
2023/02/01 08:21:52;;;;;;;;;;;;;;;4.67;78.98;100365.66;4121477;28;20483;-62
2023/02/01 08:23:56;;;;;;;;;;;;;;;4.68;78.96;100374.50;4122266;28;20352;-61
2023/02/01 08:26:04;;;;;;;;;;;;;;;4.67;79.31;100386.19;4118771;28;20008;-63
2023/02/01 08:28:06;;;;;;;;;;;;;;;4.68;79.17;100367.31;4121218;28;20680;-63
2023/02/01 08:30:09;;;;;;;;;;;;;;;4.65;79.43;100372.13;4120756;28;20008;-62
2023/02/01 08:32:11;;;;;;;;;;;;;;;4.60;79.80;100374.41;4121232;28;20358;-63
2023/02/01 08:34:14;;;;;;;;;;;;;;;4.59;79.73;100368.25;4120257;28;20012;-61
2023/02/01 08:36:16;;;;;;;;;;;;;;;4.60;79.88;100377.09;4120072;28;20365;-63
2023/02/01 08:38:18;;;;;;;;;;;;;;;4.60;80.05;100377.09;4118884;28;19968;-63
2023/02/01 08:40:21;;;;;;;;;;;;;;;4.56;80.07;100365.00;4115446;28;20008;-63
2023/02/01 08:44:43;;;;;;;;;;;;;;;4.55;80.46;100377.53;4121307;28;20040;-60
2023/02/01 08:46:45;;;;;;;;;;;;;;;4.55;80.51;100379.38;4121484;28;20029;-63
2023/02/01 08:48:47;;;;;;;;;;;;;;;4.57;80.15;100372.03;4121364;28;20012;-63
2023/02/01 08:50:50;;;;;;;;;;;;;;;4.58;80.43;100374.56;4121656;28;19992;-63
2023/02/01 08:52:52;;;;;;;;;;;;;;;4.61;80.12;100368.09;4121458;28;20647;-63
2023/02/01 08:54:54;;;;;;;;;;;;;;;4.61;80.28;100373.44;4121350;28;20029;-63
2023/02/01 08:56:56;;;;;;;;;;;;;;;4.61;80.07;100373.44;4118752;28;19968;-63
2023/02/01 08:58:58;;;;;;;;;;;;;;;4.58;80.36;100382.59;4120128;28;20013;-63
2023/02/01 09:01:03;;;;;;;;;;;;;;;4.61;80.24;100382.28;4121558;28;20448;-61
2023/02/01 09:03:05;;;;;;;;;;;;;;;4.63;80.19;100396.34;4120540;28;20012;-63
2023/02/01 09:05:07;;;;;;;;;;;;;;;4.66;80.05;100390.72;4121474;28;20032;-63
2023/02/01 09:07:10;;;;;;;;;;;;;;;4.66;79.73;100392.56;4120914;28;20037;-63
2023/02/01 09:09:12;;;;;;;;;;;;;;;4.64;80.01;100405.22;4121203;28;20080;-60
2023/02/01 09:11:15;;;;;;;;;;;;;;;4.63;80.16;100404.38;4120685;28;20009;-61
2023/02/01 09:13:17;;;;;;;;;;;;;;;4.68;79.78;100406.63;4121166;28;20024;-63
2023/02/01 09:15:19;;;;;;;;;;;;;;;4.64;80.07;100411.44;4115962;28;20365;-62
2023/02/01 09:17:21;;;;;;;;;;;;;;;4.61;79.95;100414.41;4119997;28;20478;-62
2023/02/01 09:19:23;;;;;;;;;;;;;;;4.63;79.92;100412.41;4119968;28;20017;-62
2023/02/01 09:21:25;;;;;;;;;;;;;;;4.63;80.15;100433.81;4119348;28;20022;-62
2023/02/01 09:23:28;;;;;;;;;;;;;;;4.63;79.83;100423.09;4134114;28;20432;-62
2023/02/01 09:25:30;;;;;;;;;;;;;;;4.61;79.91;100425.09;4122231;28;20468;-62
2023/02/01 09:27:33;;;;;;;;;;;;;;;4.61;80.13;100421.59;4120358;28;20017;-63
2023/02/01 09:29:35;;;;;;;;;;;;;;;4.62;80.36;100442.81;4119816;28;20009;-62
2023/02/01 09:31:37;;;;;;;;;;;;;;;4.61;80.12;100435.78;4117846;28;20036;-62
2023/02/01 09:33:39;;;;;;;;;;;;;;;4.62;80.11;100440.13;4120888;28;20021;-60
2023/02/01 09:35:41;;;;;;;;;;;;;;;4.61;80.15;100451.84;4120085;28;20025;-63
2023/02/01 09:37:43;;;;;;;;;;;;;;;4.64;80.00;100442.66;4120188;28;20020;-63
2023/02/01 09:39:47;;;;;;;;;;;;;;;4.62;80.17;100452.66;4121579;28;20049;-61
2023/02/01 09:41:53;;;;;;;;;;;;;;;4.64;80.03;100461.38;4120270;28;20028;-61
2023/02/01 09:43:57;;;;;;;;;;;;;;;4.61;80.23;100449.16;4121360;28;20452;-61
2023/02/01 09:46:00;;;;;;;;;;;;;;;4.59;80.40;100467.19;4123188;28;20113;-62
2023/02/01 09:48:04;;;;;;;;;;;;;;;4.58;80.51;100462.81;4124928;28;20016;-63
2023/02/01 09:50:06;;;;;;;;;;;;;;;4.58;80.62;100464.66;4123243;28;20042;-62
2023/02/01 09:52:08;;;;;;;;;;;;;;;4.63;80.44;100465.06;4123655;28;20008;-63
2023/02/01 09:54:12;;;;;;;;;;;;;;;4.61;80.30;100467.06;4124678;28;20024;-61
2023/02/01 09:56:16;;;;;;;;;;;;;;;4.59;80.55;100475.22;4124362;28;20025;-61
2023/02/01 09:58:20;;;;;;;;;;;;;;;4.58;80.48;100470.84;4124437;28;19928;-64
2023/02/01 10:00:23;;;;;;;;;;;;;;;4.60;80.37;100468.88;4124167;28;20005;-62
2023/02/01 10:02:26;;;;;;;;;;;;;;;4.64;80.44;100474.75;4123780;28;20024;-62
2023/02/01 10:04:28;;;;;;;;;;;;;;;4.63;80.19;100471.25;4124449;28;20566;-63
2023/02/01 10:06:34;;;;;;;;;;;;;;;4.61;80.38;100489.28;4124363;28;20009;-62
2023/02/01 10:08:39;;;;;;;;;;;;;;;4.64;80.22;100477.44;4124364;28;20020;-59
2023/02/01 10:10:42;;;;;;;;;;;;;;;4.62;80.21;100480.25;4123775;28;20048;-63
2023/02/01 10:12:58;;;;;;;;;;;;;;;4.62;80.19;100477.59;4123388;28;20014;-60
2023/02/01 10:15:03;;;;;;;;;;;;;;;4.62;80.39;100482.94;4127540;28;20009;-59
2023/02/01 10:17:09;;;;;;;;;;;;;;;4.64;80.37;100480.13;4123983;28;20440;-62
2023/02/01 10:19:20;;;;;;;;;;;;;;;4.67;80.20;100491.38;4123247;28;20428;-63
2023/02/01 10:21:26;;;;;;;;;;;;;;;4.67;79.93;100482.50;4122336;28;20911;-62
2023/02/01 10:23:32;;;;;;;;;;;;;;;4.69;79.98;100488.56;4123873;28;20121;-63
2023/02/01 10:25:38;;;;;;;;;;;;;;;4.68;80.18;100484.19;4123504;28;20458;-63
2023/02/01 10:27:41;;;;;;;;;;;;;;;4.67;80.25;100488.72;4123940;28;20455;-60
2023/02/01 10:29:45;;;;;;;;;;;;;;;4.67;80.33;100490.53;4124705;28;20452;-64
2023/02/01 10:31:49;;;;;;;;;;;;;;;4.65;80.54;100484.50;4123098;28;20422;-62
2023/02/01 10:33:52;;;;;;;;;;;;;;;4.66;80.67;100484.34;4122543;28;20025;-62
2023/02/01 10:35:54;;;;;;;;;;;;;;;4.68;80.55;100478.84;4123009;28;20016;-62
2023/02/01 10:37:56;;;;;;;;;;;;;;;4.71;80.16;100485.75;4123788;28;20364;-62
2023/02/01 10:40:00;;;;;;;;;;;;;;;4.70;79.91;100484.88;4124283;28;20422;-62
2023/02/01 10:42:02;;;;;;;;;;;;;;;4.69;79.92;100494.75;4122653;28;20385;-60
2023/02/01 10:44:04;;;;;;;;;;;;;;;4.67;80.32;100499.41;4123270;28;20009;-61
2023/02/01 10:46:06;;;;;;;;;;;;;;;4.71;80.20;100505.31;4122413;28;20016;-62
2023/02/01 10:48:09;;;;;;;;;;;;;;;4.71;79.94;100499.97;4123726;28;20041;-61
2023/02/01 10:50:17;;;;;;;;;;;;;;;4.70;80.19;100492.91;4121617;28;20088;-63
2023/02/01 10:52:20;;;;;;;;;;;;;;;4.72;80.27;100503.47;4122404;28;20052;-60
2023/02/01 10:54:23;;;;;;;;;;;;;;;4.77;79.92;100490.53;4123702;28;20012;-63
2023/02/01 10:56:26;;;;;;;;;;;;;;;4.74;79.80;100494.31;4137549;28;20462;-61
2023/02/01 10:58:28;;;;;;;;;;;;;;;4.73;79.95;100494.47;4124948;28;20012;-64
2023/02/01 11:00:37;;;;;;;;;;;;;;;4.71;79.87;100496.44;4122266;28;21572;-63
2023/02/01 11:02:39;;;;;;;;;;;;;;;4.72;79.82;100490.97;4122768;28;20025;-63
2023/02/01 11:04:43;;;;;;;;;;;;;;;4.71;80.03;100497.28;4124809;28;20065;-63
2023/02/01 11:06:46;;;;;;;;;;;;;;;4.69;80.47;100496.59;4123608;28;20020;-62